Time;durP1;ratioP1;P1;durP2;ratioP2;P2;SDS_P1;SDS_P2;PMS_P1;PMS_P2;Temp;Humidity;BMP_temperature;BMP_pressure;BME280_temperature;BME280_humidity;BME280_pressure;Samples;Min_cycle;Max_cycle;Signal;HPM_P1;HPM_P2
2022/09/16 00:01:03;;;;;;;4.47;1.02;;;;;;;18.37;51.64;100731.78;5029840;28;20343;-61
2022/09/16 00:03:28;;;;;;;4.60;1.15;;;;;;;18.36;51.40;100732.13;5029855;28;20364;-61
2022/09/16 00:05:54;;;;;;;5.00;0.98;;;;;;;18.50;51.67;100732.44;5029899;28;20113;-61
2022/09/16 00:08:20;;;;;;;9.38;1.20;;;;;;;18.50;51.63;100730.47;5029798;28;20394;-61
2022/09/16 00:10:45;;;;;;;7.40;1.17;;;;;;;18.40;51.30;100727.53;5029910;28;20042;-61
2022/09/16 00:13:10;;;;;;;4.50;1.10;;;;;;;18.47;51.15;100724.91;5030015;28;20033;-61
2022/09/16 00:15:35;;;;;;;5.07;1.08;;;;;;;18.35;51.43;100725.88;5028716;28;20042;-62
2022/09/16 00:18:01;;;;;;;6.63;1.15;;;;;;;18.29;51.51;100727.31;5015532;28;20034;-62
2022/09/16 00:20:26;;;;;;;7.07;1.20;;;;;;;18.42;51.54;100725.22;5009964;28;20038;-61
2022/09/16 00:22:51;;;;;;;5.40;1.23;;;;;;;18.44;51.62;100728.38;5008418;28;20115;-62
2022/09/16 00:25:17;;;;;;;2.75;0.70;;;;;;;18.35;50.99;100723.13;5010331;28;20057;-62
2022/09/16 00:27:42;;;;;;;9.27;1.13;;;;;;;18.28;51.86;100732.00;5009925;28;20105;-62
2022/09/16 00:30:07;;;;;;;8.77;1.20;;;;;;;18.40;51.07;100730.28;5009919;28;20037;-61
2022/09/16 00:32:32;;;;;;;6.45;1.00;;;;;;;18.31;51.45;100728.56;5009806;28;20026;-62
2022/09/16 00:34:58;;;;;;;6.03;1.13;;;;;;;18.25;52.39;100731.94;5009842;28;20038;-61
2022/09/16 00:37:23;;;;;;;6.65;1.30;;;;;;;18.36;51.74;100734.88;5008773;28;20395;-61
2022/09/16 00:39:48;;;;;;;4.03;0.93;;;;;;;18.29;51.73;100736.34;5007836;28;20121;-62
2022/09/16 00:42:14;;;;;;;7.57;1.38;;;;;;;18.42;51.96;100742.44;5009966;28;20467;-61
2022/09/16 00:44:39;;;;;;;5.57;1.25;;;;;;;18.38;51.85;100760.00;5009562;28;20037;-62
2022/09/16 00:47:04;;;;;;;5.35;1.10;;;;;;;18.51;51.56;100762.22;5010002;28;20058;-62
2022/09/16 00:49:30;;;;;;;11.38;2.17;;;;;;;18.56;51.59;100760.34;5009502;28;20392;-62
2022/09/16 00:51:55;;;;;;;8.73;2.45;;;;;;;18.58;52.11;100749.81;5008012;28;20045;-63
2022/09/16 00:54:20;;;;;;;11.25;2.72;;;;;;;18.51;52.29;100747.72;5007934;28;20462;-63
2022/09/16 00:56:45;;;;;;;12.18;4.07;;;;;;;18.53;52.18;100737.19;5013033;28;20158;-63
2022/09/16 00:59:11;;;;;;;15.68;3.40;;;;;;;18.59;52.44;100732.19;5012783;28;20054;-63
2022/09/16 01:01:36;;;;;;;11.07;3.40;;;;;;;18.56;51.75;100738.41;5012154;28;20030;-63
2022/09/16 01:04:02;;;;;;;13.70;2.03;;;;;;;18.47;52.55;100728.44;5012926;28;20510;-62
2022/09/16 01:06:27;;;;;;;7.60;1.35;;;;;;;18.37;53.13;100715.34;5013116;28;20037;-63
2022/09/16 01:08:52;;;;;;;5.45;1.33;;;;;;;18.33;53.12;100718.00;5011200;28;20126;-63
2022/09/16 01:11:18;;;;;;;6.70;1.60;;;;;;;18.15;52.91;100728.63;5013132;28;20034;-63
2022/09/16 01:13:43;;;;;;;4.90;1.20;;;;;;;18.12;53.17;100723.06;5012541;28;20468;-61
2022/09/16 01:16:08;;;;;;;9.07;1.25;;;;;;;18.00;53.19;100732.22;5013182;28;20129;-62
2022/09/16 01:18:33;;;;;;;6.38;1.17;;;;;;;18.08;53.53;100735.91;5031474;28;20474;-61
2022/09/16 01:20:59;;;;;;;8.93;1.40;;;;;;;18.21;53.29;100736.53;5032734;28;20108;-61
2022/09/16 01:23:24;;;;;;;3.83;1.27;;;;;;;18.32;52.26;100730.13;5031543;28;20037;-61
2022/09/16 01:25:49;;;;;;;8.60;1.75;;;;;;;18.15;53.69;100738.78;5032378;28;20040;-61
2022/09/16 01:28:15;;;;;;;12.52;2.50;;;;;;;18.17;53.26;100736.47;5032123;28;20037;-61
2022/09/16 01:30:40;;;;;;;6.78;1.48;;;;;;;18.26;53.13;100739.00;5032338;28;20052;-61
2022/09/16 01:33:07;;;;;;;8.45;2.15;;;;;;;18.22;53.37;100736.19;5032334;28;20034;-61
2022/09/16 01:35:32;;;;;;;6.85;1.52;;;;;;;18.32;52.49;100730.13;5032519;28;20499;-63
2022/09/16 01:37:58;;;;;;;8.50;1.55;;;;;;;18.32;52.09;100732.06;5032328;28;20101;-62
2022/09/16 01:40:23;;;;;;;5.90;1.40;;;;;;;18.18;52.67;100737.28;5032154;28;20026;-62
2022/09/16 01:42:48;;;;;;;7.53;1.40;;;;;;;18.23;53.22;100726.81;5032197;28;20076;-62
2022/09/16 01:45:13;;;;;;;6.80;1.40;;;;;;;18.26;52.40;100731.59;5032150;28;20505;-62
2022/09/16 01:47:39;;;;;;;3.78;1.17;;;;;;;18.29;52.65;100722.66;5032299;28;20033;-64
2022/09/16 01:50:04;;;;;;;6.03;1.17;;;;;;;18.25;52.69;100720.97;5032025;28;20026;-64
2022/09/16 01:52:29;;;;;;;4.75;1.10;;;;;;;18.26;52.98;100728.03;5031888;28;20030;-62
2022/09/16 01:54:55;;;;;;;4.50;1.30;;;;;;;18.16;53.09;100726.69;5031770;28;20069;-63
2022/09/16 01:57:20;;;;;;;8.88;1.35;;;;;;;18.23;52.91;100735.03;5031861;28;20057;-61
2022/09/16 01:59:47;;;;;;;6.72;1.10;;;;;;;18.20;52.67;100724.78;5031997;28;20022;-60
2022/09/16 02:02:12;;;;;;;6.57;1.55;;;;;;;18.22;52.77;100727.97;5030467;28;20517;-61
2022/09/16 02:04:38;;;;;;;8.82;1.52;;;;;;;18.23;52.13;100737.78;5031691;28;20041;-62
2022/09/16 02:07:03;;;;;;;6.65;1.48;;;;;;;18.00;53.04;100731.44;5031516;28;20072;-63
2022/09/16 02:09:28;;;;;;;5.47;1.40;;;;;;;17.87;53.73;100739.78;5030029;28;20030;-62
2022/09/16 02:11:54;;;;;;;5.35;1.27;;;;;;;18.13;52.71;100716.44;5032107;28;20030;-62
2022/09/16 02:14:19;;;;;;;6.17;1.10;;;;;;;18.15;52.62;100722.34;5031250;28;20044;-61
2022/09/16 02:16:44;;;;;;;6.47;1.60;;;;;;;18.09;52.47;100719.13;5027820;28;20289;-61
2022/09/16 02:19:09;;;;;;;4.03;1.20;;;;;;;18.08;53.33;100716.72;5011770;28;20125;-62
2022/09/16 02:21:35;;;;;;;16.80;1.58;;;;;;;18.12;52.73;100729.31;5011981;28;20497;-60
2022/09/16 02:24:00;;;;;;;6.47;1.00;;;;;;;18.16;52.40;100723.94;5011276;28;20041;-61
2022/09/16 02:26:25;;;;;;;3.58;0.95;;;;;;;18.17;52.78;100732.94;5011708;28;20284;-61
2022/09/16 02:28:50;;;;;;;7.82;1.33;;;;;;;18.14;52.53;100721.56;5011813;28;20084;-62
2022/09/16 02:31:16;;;;;;;4.70;0.98;;;;;;;18.03;53.18;100725.25;5011598;28;20394;-61
2022/09/16 02:33:41;;;;;;;8.23;1.58;;;;;;;18.05;52.85;100733.88;5011415;28;20392;-62
2022/09/16 02:36:07;;;;;;;7.05;1.85;;;;;;;18.22;52.62;100733.44;5011380;28;20483;-62
2022/09/16 02:38:32;;;;;;;12.00;3.03;;;;;;;18.28;53.00;100726.53;5011332;28;20034;-62
2022/09/16 02:40:57;;;;;;;11.15;3.78;;;;;;;18.26;52.75;100728.84;5011632;28;20475;-62
2022/09/16 02:43:23;;;;;;;10.77;2.60;;;;;;;18.30;52.49;100713.25;5011336;28;20030;-62
2022/09/16 02:45:48;;;;;;;4.65;1.10;;;;;;;18.18;52.83;100716.16;5011406;28;20034;-61
2022/09/16 02:48:13;;;;;;;6.72;1.30;;;;;;;18.17;52.40;100714.56;5011603;28;20037;-62
2022/09/16 02:50:39;;;;;;;3.53;1.00;;;;;;;17.86;53.04;100716.25;5011508;28;20030;-60
2022/09/16 02:53:04;;;;;;;6.90;1.08;;;;;;;17.95;52.84;100716.06;5010937;28;20038;-63
2022/09/16 02:55:29;;;;;;;6.18;0.90;;;;;;;17.87;53.56;100720.59;5011156;28;20027;-63
2022/09/16 02:57:54;;;;;;;4.63;1.17;;;;;;;17.93;53.01;100716.44;5011555;28;20093;-63
2022/09/16 03:00:21;;;;;;;6.03;1.10;;;;;;;18.00;52.73;100724.00;5011217;28;20027;-63
2022/09/16 03:02:46;;;;;;;4.05;1.05;;;;;;;18.00;52.48;100713.03;5011384;28;20035;-63
2022/09/16 03:05:11;;;;;;;5.18;0.85;;;;;;;17.94;52.71;100707.06;5009805;28;20506;-63
2022/09/16 03:07:37;;;;;;;4.13;0.80;;;;;;;17.94;53.13;100709.81;5011288;28;20038;-60
2022/09/16 03:10:02;;;;;;;4.68;0.85;;;;;;;17.83;53.48;100716.19;5010623;28;20115;-60
2022/09/16 03:12:28;;;;;;;5.97;0.98;;;;;;;17.81;53.41;100704.78;5009407;28;20528;-62
2022/09/16 03:14:53;;;;;;;5.75;1.02;;;;;;;17.82;53.31;100712.63;5011070;28;20402;-61
2022/09/16 03:17:18;;;;;;;4.88;1.20;;;;;;;17.90;52.87;100717.13;5018612;28;20033;-60
2022/09/16 03:19:44;;;;;;;3.10;0.82;;;;;;;17.81;53.01;100719.28;5030700;28;20030;-60
2022/09/16 03:22:09;;;;;;;5.03;1.10;;;;;;;17.79;53.50;100718.81;5030443;28;20033;-60
2022/09/16 03:24:34;;;;;;;5.70;1.10;;;;;;;17.82;52.95;100706.38;5029246;28;20040;-60
2022/09/16 03:26:59;;;;;;;6.07;1.13;;;;;;;17.78;53.13;100714.50;5030832;28;20433;-60
2022/09/16 03:29:25;;;;;;;5.05;1.08;;;;;;;17.88;52.87;100715.94;5029073;28;20077;-61
2022/09/16 03:31:50;;;;;;;5.20;1.00;;;;;;;17.90;52.93;100714.41;5030596;28;20520;-60
2022/09/16 03:34:15;;;;;;;4.35;0.77;;;;;;;17.93;52.73;100716.44;5030470;28;20108;-60
2022/09/16 03:36:41;;;;;;;6.13;0.98;;;;;;;17.91;52.58;100716.00;5030792;28;20037;-61
2022/09/16 03:39:06;;;;;;;6.00;0.98;;;;;;;18.07;52.61;100717.88;5030048;28;20116;-61
2022/09/16 03:41:31;;;;;;;7.00;1.33;;;;;;;18.00;52.67;100717.75;5030527;28;20038;-60
2022/09/16 03:43:57;;;;;;;4.32;1.08;;;;;;;17.98;53.47;100722.78;5030502;28;20026;-61
2022/09/16 03:46:22;;;;;;;7.38;1.15;;;;;;;17.94;53.15;100717.22;5030513;28;20040;-61
2022/09/16 03:48:47;;;;;;;3.65;0.90;;;;;;;17.94;53.07;100718.03;5028837;28;20037;-61
2022/09/16 03:51:12;;;;;;;5.82;0.90;;;;;;;18.01;53.25;100719.31;5030122;28;20037;-61
2022/09/16 03:53:38;;;;;;;6.05;1.00;;;;;;;17.90;53.59;100708.94;5029868;28;20030;-61
2022/09/16 03:56:03;;;;;;;5.95;1.02;;;;;;;18.02;53.40;100707.22;5030644;28;20084;-61
2022/09/16 03:58:28;;;;;;;4.88;1.25;;;;;;;17.94;52.82;100700.78;5029647;28;20080;-61
2022/09/16 04:00:54;;;;;;;9.40;1.30;;;;;;;17.78;53.84;100709.81;5028856;28;20045;-61
2022/09/16 04:03:19;;;;;;;6.05;0.98;;;;;;;17.87;53.24;100701.41;5030046;28;20041;-61
2022/09/16 04:05:44;;;;;;;5.90;1.10;;;;;;;17.78;53.73;100692.59;5030224;28;20030;-61
2022/09/16 04:08:09;;;;;;;7.65;1.50;;;;;;;17.75;53.33;100685.88;5030061;28;20573;-61
2022/09/16 04:10:35;;;;;;;7.47;1.20;;;;;;;17.69;54.27;100689.25;5029556;28;20041;-61
2022/09/16 04:13:00;;;;;;;6.70;1.13;;;;;;;17.76;53.30;100694.91;5029791;28;20470;-61
2022/09/16 04:15:25;;;;;;;3.25;1.10;;;;;;;17.83;53.30;100695.06;5030110;28;20033;-61
2022/09/16 04:17:51;;;;;;;4.78;1.25;;;;;;;17.84;53.63;100693.09;5016812;28;20479;-61
2022/09/16 04:20:16;;;;;;;4.55;1.00;;;;;;;17.82;53.65;100693.47;5009927;28;20042;-60
2022/09/16 04:22:41;;;;;;;4.80;1.40;;;;;;;17.54;54.32;100705.41;5009542;28;20105;-61
2022/09/16 04:25:07;;;;;;;5.22;1.00;;;;;;;17.69;53.86;100705.69;5010275;28;20097;-61
2022/09/16 04:27:32;;;;;;;8.93;1.20;;;;;;;17.72;53.19;100704.97;5010113;28;20050;-61
2022/09/16 04:29:57;;;;;;;4.57;1.00;;;;;;;17.92;52.55;100698.41;5007952;28;20059;-61
2022/09/16 04:32:23;;;;;;;5.97;1.05;;;;;;;17.98;53.04;100692.66;5009677;28;20478;-61
2022/09/16 04:34:48;;;;;;;7.75;1.25;;;;;;;17.86;52.69;100688.88;5010033;28;20062;-61
2022/09/16 04:37:13;;;;;;;4.43;1.25;;;;;;;17.83;52.61;100692.31;5008380;28;20030;-61
2022/09/16 04:39:38;;;;;;;6.68;0.95;;;;;;;17.80;53.01;100689.50;5009430;28;20038;-61
2022/09/16 04:42:05;;;;;;;6.35;1.10;;;;;;;17.80;52.59;100679.34;5009855;28;20044;-61
2022/09/16 04:44:31;;;;;;;5.15;0.95;;;;;;;17.89;52.72;100681.88;5009879;28;20030;-61
2022/09/16 04:46:56;;;;;;;4.68;0.80;;;;;;;17.76;53.12;100683.97;5009906;28;20022;-61
2022/09/16 04:49:21;;;;;;;6.30;0.88;;;;;;;17.88;52.62;100685.81;5009618;28;20058;-61
2022/09/16 04:51:47;;;;;;;6.32;1.30;;;;;;;17.78;52.61;100682.44;5008188;28;20037;-61
2022/09/16 04:54:12;;;;;;;4.45;0.88;;;;;;;17.56;53.35;100677.66;5009172;28;20041;-61
2022/09/16 04:56:38;;;;;;;5.65;1.08;;;;;;;17.81;52.54;100685.59;5009729;28;20136;-62
2022/09/16 04:59:03;;;;;;;4.47;0.80;;;;;;;17.89;52.36;100685.44;5009354;28;20030;-62
2022/09/16 05:01:28;;;;;;;5.22;1.05;;;;;;;17.74;52.51;100687.06;5008271;28;20030;-62
2022/09/16 05:03:54;;;;;;;5.65;1.10;;;;;;;17.85;52.14;100676.31;5009617;28;20085;-62
2022/09/16 05:06:19;;;;;;;3.45;0.95;;;;;;;17.79;52.46;100677.75;5008175;28;20030;-62
2022/09/16 05:08:44;;;;;;;3.40;0.80;;;;;;;17.66;52.98;100674.38;5009243;28;20486;-62
2022/09/16 05:11:10;;;;;;;4.25;1.23;;;;;;;17.77;52.59;100686.34;5009131;28;20515;-62
2022/09/16 05:13:35;;;;;;;8.23;1.23;;;;;;;17.75;52.56;100687.84;5009442;28;20096;-61
2022/09/16 05:16:00;;;;;;;5.18;1.13;;;;;;;17.83;52.57;100684.09;5009494;28;20113;-61
2022/09/16 05:18:25;;;;;;;5.20;1.02;;;;;;;17.79;52.02;100683.22;5027115;28;20509;-60
2022/09/16 05:20:51;;;;;;;6.18;1.10;;;;;;;17.75;52.54;100677.66;5028932;28;20022;-61
2022/09/16 05:23:16;;;;;;;4.82;1.08;;;;;;;17.77;52.20;100671.84;5028658;28;20045;-60
2022/09/16 05:25:41;;;;;;;5.60;1.45;;;;;;;17.52;52.85;100674.81;5029030;28;20040;-61
2022/09/16 05:28:07;;;;;;;9.13;1.42;;;;;;;17.66;52.45;100679.03;5029020;28;20552;-61
2022/09/16 05:30:32;;;;;;;6.03;1.27;;;;;;;17.69;51.89;100673.66;5029010;28;20120;-60
2022/09/16 05:32:57;;;;;;;6.10;1.13;;;;;;;17.67;52.90;100673.19;5028835;28;20030;-60
2022/09/16 05:35:22;;;;;;;5.03;1.30;;;;;;;17.64;52.22;100676.66;5028939;28;20030;-60
2022/09/16 05:37:48;;;;;;;7.45;1.33;;;;;;;17.58;52.25;100670.66;5027267;28;20041;-60
2022/09/16 05:40:13;;;;;;;5.20;1.33;;;;;;;17.67;51.90;100675.16;5028635;28;20034;-62
2022/09/16 05:42:38;;;;;;;4.38;1.20;;;;;;;17.64;52.17;100673.13;5031263;28;20051;-61
2022/09/16 05:45:04;;;;;;;7.18;1.25;;;;;;;17.77;52.66;100675.38;5031999;28;20062;-62
2022/09/16 05:47:29;;;;;;;4.72;1.10;;;;;;;17.59;52.43;100672.25;5032024;28;20026;-61
2022/09/16 05:49:54;;;;;;;6.18;1.35;;;;;;;17.74;52.00;100678.03;5031247;28;20038;-61
2022/09/16 05:52:20;;;;;;;7.90;1.70;;;;;;;17.67;52.16;100675.94;5030657;28;20121;-63
2022/09/16 05:54:45;;;;;;;7.15;1.30;;;;;;;17.64;52.85;100684.06;5031816;28;20069;-63
2022/09/16 05:57:10;;;;;;;6.95;1.23;;;;;;;17.67;52.32;100686.09;5031958;28;20116;-63
2022/09/16 05:59:36;;;;;;;13.52;1.70;;;;;;;17.74;52.38;100686.25;5031589;28;20030;-61
2022/09/16 06:02:01;;;;;;;9.27;1.42;;;;;;;17.77;52.40;100682.78;5031983;28;20057;-61
2022/09/16 06:04:27;;;;;;;7.13;1.30;;;;;;;17.83;51.88;100678.63;5031586;28;20052;-61
2022/09/16 06:06:52;;;;;;;6.32;1.40;;;;;;;17.75;51.92;100677.66;5031559;28;20038;-62
2022/09/16 06:09:17;;;;;;;10.50;1.65;;;;;;;17.98;51.39;100681.69;5031738;28;20084;-62
2022/09/16 06:11:42;;;;;;;8.00;1.17;;;;;;;17.99;52.07;100677.78;5031805;28;20502;-61
2022/09/16 06:14:08;;;;;;;7.93;1.45;;;;;;;18.01;51.47;100680.94;5031284;28;20038;-60
2022/09/16 06:16:33;;;;;;;7.75;1.17;;;;;;;17.72;52.49;100683.06;5029003;28;20038;-62
2022/09/16 06:18:58;;;;;;;8.00;1.45;;;;;;;17.74;52.64;100680.75;5011727;28;20038;-62
2022/09/16 06:21:23;;;;;;;6.57;1.52;;;;;;;17.84;52.16;100685.69;5011715;28;20054;-62
2022/09/16 06:23:49;;;;;;;6.65;1.75;;;;;;;17.84;52.53;100680.22;5011064;28;20136;-63
2022/09/16 06:26:14;;;;;;;10.50;1.80;;;;;;;17.98;52.24;100684.44;5011685;28;20092;-62
2022/09/16 06:28:39;;;;;;;6.60;1.42;;;;;;;17.85;51.54;100689.22;5011640;28;20041;-62
2022/09/16 06:31:05;;;;;;;6.75;1.15;;;;;;;17.98;51.75;100670.75;5011390;28;20057;-62
2022/09/16 06:33:30;;;;;;;9.57;1.42;;;;;;;17.84;51.88;100674.75;5010939;28;20113;-61
2022/09/16 06:35:56;;;;;;;9.70;1.15;;;;;;;17.97;51.09;100680.88;5009732;28;20061;-60
2022/09/16 06:38:22;;;;;;;7.15;1.05;;;;;;;17.88;51.28;100678.38;5011334;28;20057;-61
2022/09/16 06:40:48;;;;;;;3.30;0.93;;;;;;;17.92;50.81;100662.78;5011647;28;20069;-61
2022/09/16 06:43:14;;;;;;;8.18;1.30;;;;;;;17.99;50.77;100661.34;5010781;28;20026;-62
2022/09/16 06:45:39;;;;;;;10.63;1.70;;;;;;;18.03;50.48;100664.97;5010479;28;20038;-63
2022/09/16 06:48:04;;;;;;;7.95;1.17;;;;;;;18.08;50.97;100665.47;5011475;28;20042;-62
2022/09/16 06:50:30;;;;;;;6.65;1.42;;;;;;;18.05;50.59;100666.19;5011015;28;20033;-62
2022/09/16 06:52:55;;;;;;;5.93;1.30;;;;;;;18.08;50.75;100672.91;5011483;28;20162;-62
2022/09/16 06:55:21;;;;;;;5.45;0.98;;;;;;;17.89;50.96;100671.75;5011187;28;20038;-61
2022/09/16 06:57:46;;;;;;;8.75;1.48;;;;;;;18.11;51.05;100655.72;4993420;28;20026;-59
2022/09/16 07:00:13;;;;;;;12.07;1.35;;;;;;;18.24;50.94;100654.41;5011267;28;20049;-59
2022/09/16 07:02:38;;;;;;;7.70;1.35;;;;;;;18.27;50.84;100664.63;5011009;28;20113;-60
2022/09/16 07:05:03;;;;;;;10.25;1.23;;;;;;;18.33;50.02;100657.72;5010661;28;20039;-60
2022/09/16 07:07:29;;;;;;;8.88;1.50;;;;;;;18.37;50.19;100656.97;5011300;28;20034;-60
2022/09/16 07:09:54;;;;;;;9.52;1.48;;;;;;;18.51;49.64;100657.25;5011015;28;20038;-60
2022/09/16 07:12:20;;;;;;;10.35;1.27;;;;;;;18.39;49.61;100660.16;5010685;28;20038;-60
2022/09/16 07:14:45;;;;;;;7.68;1.15;;;;;;;18.49;49.43;100657.63;5010856;28;20087;-61
2022/09/16 07:17:10;;;;;;;8.73;1.25;;;;;;;18.49;50.06;100659.53;5018395;28;20545;-61
2022/09/16 07:19:36;;;;;;;7.10;1.30;;;;;;;18.50;49.21;100659.19;5030779;28;20040;-60
2022/09/16 07:22:02;;;;;;;9.38;1.65;;;;;;;18.51;49.47;100658.03;5029419;28;20033;-61
2022/09/16 07:24:27;;;;;;;6.90;1.38;;;;;;;18.45;49.63;100661.44;5030203;28;20033;-61
2022/09/16 07:26:53;;;;;;;10.85;1.65;;;;;;;18.53;50.03;100649.44;5029611;28;20406;-61
2022/09/16 07:29:19;;;;;;;6.45;1.27;;;;;;;18.59;50.12;100653.44;5029947;28;20034;-61
2022/09/16 07:31:44;;;;;;;7.03;1.65;;;;;;;18.58;50.01;100667.56;5030528;28;20109;-62
2022/09/16 07:34:10;;;;;;;16.35;1.63;;;;;;;18.55;49.47;100654.56;5030168;28;20383;-62
2022/09/16 07:36:35;;;;;;;5.82;1.20;;;;;;;18.54;49.05;100652.97;5030336;28;20077;-62
2022/09/16 07:39:00;;;;;;;8.73;1.20;;;;;;;18.82;49.30;100663.63;5029081;28;20032;-62
2022/09/16 07:41:25;;;;;;;5.80;1.60;;;;;;;18.92;48.46;100648.53;5030451;28;20030;-62
2022/09/16 07:43:51;;;;;;;6.72;1.40;;;;;;;18.84;49.08;100658.59;5030282;28;20040;-61
2022/09/16 07:46:16;;;;;;;12.25;1.50;;;;;;;18.73;49.44;100649.34;5030417;28;20096;-59
2022/09/16 07:48:41;;;;;;;7.72;1.40;;;;;;;18.89;48.66;100666.50;5030096;28;20030;-60
2022/09/16 07:51:07;;;;;;;11.02;1.48;;;;;;;18.87;48.63;100660.59;5029624;28;20030;-60
2022/09/16 07:53:32;;;;;;;7.32;1.90;;;;;;;18.98;49.13;100661.56;5029951;28;20045;-60
2022/09/16 07:55:57;;;;;;;8.63;1.40;;;;;;;19.07;48.61;100661.31;5011934;28;20049;-61
2022/09/16 07:58:22;;;;;;;8.63;1.50;;;;;;;19.20;49.02;100659.16;5030086;28;20034;-61
2022/09/16 08:00:48;;;;;;;8.60;1.50;;;;;;;19.16;48.66;100669.28;5030128;28;20623;-62
2022/09/16 08:03:13;;;;;;;5.93;1.33;;;;;;;19.12;47.93;100671.19;5029238;28;20030;-61
2022/09/16 08:05:38;;;;;;;7.28;1.30;;;;;;;19.02;47.88;100653.41;5029505;28;20025;-62
2022/09/16 08:08:04;;;;;;;8.55;1.60;;;;;;;19.05;48.74;100661.69;5030029;28;20022;-62
2022/09/16 08:10:29;;;;;;;12.68;1.73;;;;;;;19.22;47.83;100662.31;5029845;28;20117;-62
2022/09/16 08:12:54;;;;;;;10.18;1.30;;;;;;;19.11;48.42;100655.88;5029742;28;20083;-62
2022/09/16 08:15:19;;;;;;;8.35;1.90;;;;;;;19.18;48.46;100666.97;5029899;28;20034;-62
2022/09/16 08:17:45;;;;;;;12.68;1.33;;;;;;;19.25;47.81;100650.59;5017931;28;20114;-62
2022/09/16 08:20:10;;;;;;;7.82;1.63;;;;;;;19.31;47.56;100662.88;5009928;28;20085;-62
2022/09/16 08:22:35;;;;;;;12.13;1.92;;;;;;;19.25;47.76;100658.84;5009805;28;20038;-62
2022/09/16 08:25:01;;;;;;;12.43;2.38;;;;;;;19.28;47.38;100669.09;5010210;28;20097;-62
2022/09/16 08:27:26;;;;;;;8.52;1.38;;;;;;;19.52;47.36;100667.84;5010054;28;20037;-63
2022/09/16 08:29:52;;;;;;;10.60;1.42;;;;;;;19.68;46.73;100655.88;5009719;28;20038;-64
2022/09/16 08:32:17;;;;;;;8.68;1.70;;;;;;;19.60;47.37;100666.00;5009687;28;20035;-63
2022/09/16 08:34:42;;;;;;;7.53;1.33;;;;;;;19.56;46.70;100659.66;5009677;28;20085;-63
2022/09/16 08:37:08;;;;;;;10.57;1.50;;;;;;;19.47;47.25;100668.16;5008202;28;20030;-62
2022/09/16 08:39:34;;;;;;;11.40;1.30;;;;;;;19.47;47.16;100656.41;5009656;28;20037;-61
2022/09/16 08:41:59;;;;;;;14.73;1.65;;;;;;;19.36;46.61;100668.03;5009781;28;20042;-61
2022/09/16 08:44:24;;;;;;;15.90;2.20;;;;;;;19.43;46.31;100659.09;5008631;28;20049;-62
2022/09/16 08:46:49;;;;;;;13.63;1.65;;;;;;;19.66;45.88;100647.22;5008645;28;20034;-61
2022/09/16 08:49:15;;;;;;;13.93;1.93;;;;;;;19.72;45.91;100657.50;5008048;28;20040;-60
2022/09/16 08:51:40;;;;;;;12.82;1.95;;;;;;;19.80;46.15;100645.47;5009339;28;20761;-61
2022/09/16 08:54:05;;;;;;;9.65;1.50;;;;;;;19.96;45.85;100652.72;5009759;28;20045;-60
2022/09/16 08:56:30;;;;;;;9.18;1.60;;;;;;;19.90;46.17;100648.75;5009723;28;20035;-61
2022/09/16 08:58:56;;;;;;;12.00;2.00;;;;;;;19.99;45.85;100651.97;5009311;28;20113;-61
2022/09/16 09:01:21;;;;;;;8.73;1.70;;;;;;;19.91;45.03;100653.06;5009648;28;20494;-61
2022/09/16 09:03:46;;;;;;;12.38;1.50;;;;;;;20.09;44.55;100647.75;5009254;28;20327;-61
2022/09/16 09:06:12;;;;;;;13.43;1.70;;;;;;;19.99;44.81;100655.50;5009584;28;20039;-61
2022/09/16 09:08:37;;;;;;;10.57;1.77;;;;;;;20.03;44.67;100661.06;5009203;28;20018;-61
2022/09/16 09:11:02;;;;;;;14.85;1.70;;;;;;;20.15;44.25;100651.75;5009122;28;20145;-61
2022/09/16 09:13:27;;;;;;;10.65;1.63;;;;;;;20.00;43.74;100656.31;5009172;28;20070;-60
2022/09/16 09:15:53;;;;;;;11.98;1.92;;;;;;;19.99;42.86;100651.97;5010146;28;20152;-60
2022/09/16 09:18:18;;;;;;;11.45;1.95;;;;;;;20.44;42.83;100652.84;5027924;28;20029;-61
2022/09/16 09:20:43;;;;;;;6.80;1.67;;;;;;;20.60;42.87;100649.84;5032671;28;20051;-61
2022/09/16 09:23:08;;;;;;;11.35;1.50;;;;;;;20.49;42.53;100644.22;5031862;28;20116;-61
2022/09/16 09:25:34;;;;;;;10.20;1.75;;;;;;;20.60;42.31;100654.53;5031437;28;20089;-61
2022/09/16 09:27:59;;;;;;;10.75;1.70;;;;;;;20.71;41.36;100660.97;5032673;28;20562;-61
2022/09/16 09:30:24;;;;;;;12.57;2.20;;;;;;;20.76;41.56;100651.56;5032185;28;20080;-61
2022/09/16 09:32:50;;;;;;;45.47;3.78;;;;;;;20.55;41.46;100650.19;5031890;28;20065;-61
2022/09/16 09:35:15;;;;;;;18.80;2.10;;;;;;;20.73;41.91;100650.34;5032153;28;20045;-62
2022/09/16 09:37:40;;;;;;;14.68;1.98;;;;;;;20.95;41.24;100656.03;5032296;28;20034;-62
2022/09/16 09:40:08;;;;;;;10.50;1.77;;;;;;;20.93;41.50;100639.91;5030974;28;20033;-62
2022/09/16 09:42:33;;;;;;;8.35;1.50;;;;;;;21.17;40.67;100641.25;5031983;28;20253;-61
2022/09/16 09:44:58;;;;;;;14.18;1.65;;;;;;;21.20;40.88;100643.25;5030779;28;20471;-62
2022/09/16 09:47:23;;;;;;;10.32;1.58;;;;;;;21.20;40.90;100635.00;5032221;28;20114;-64
2022/09/16 09:49:49;;;;;;;9.15;1.40;;;;;;;21.19;41.25;100625.13;5031989;28;20110;-62
2022/09/16 09:52:14;;;;;;;17.00;1.83;;;;;;;21.23;40.73;100627.91;5031913;28;20029;-63
2022/09/16 09:54:40;;;;;;;8.37;1.43;;;;;;;20.95;40.88;100621.06;5031018;28;20121;-63
2022/09/16 09:57:05;;;;;;;11.13;1.70;;;;;;;20.96;40.66;100638.34;5031055;28;20257;-62
2022/09/16 09:59:31;;;;;;;14.40;1.83;;;;;;;20.90;40.63;100635.97;5031755;28;20025;-61
2022/09/16 10:01:56;;;;;;;16.23;1.98;;;;;;;21.00;40.49;100642.72;5030413;28;20034;-61
2022/09/16 10:04:22;;;;;;;10.00;1.42;;;;;;;20.74;40.71;100640.94;5031585;28;20176;-61
2022/09/16 10:06:47;;;;;;;13.13;1.83;;;;;;;20.43;41.19;100636.72;5030765;28;20104;-62
2022/09/16 10:09:12;;;;;;;13.77;1.83;;;;;;;20.13;42.52;100632.91;5026230;28;20033;-62
2022/09/16 10:11:38;;;;;;;10.75;1.70;;;;;;;20.26;41.74;100618.88;5029478;28;20037;-62
2022/09/16 10:14:04;;;;;;;15.45;2.88;;;;;;;20.43;41.25;100612.75;5031317;28;20038;-62
2022/09/16 10:16:29;;;;;;;9.55;2.30;;;;;;;20.58;40.84;100610.13;5029956;28;20035;-62
2022/09/16 10:18:55;;;;;;;10.45;2.13;;;;;;;20.59;41.68;100611.72;5011768;28;20030;-62
2022/09/16 10:21:20;;;;;;;10.05;2.00;;;;;;;20.72;41.06;100619.31;5010235;28;20037;-63
2022/09/16 10:23:45;;;;;;;11.48;2.58;;;;;;;20.97;40.45;100602.19;5011692;28;20053;-63
2022/09/16 10:26:11;;;;;;;12.05;2.30;;;;;;;20.88;40.08;100588.78;5011825;28;20027;-61
2022/09/16 10:28:36;;;;;;;11.25;2.50;;;;;;;21.04;39.32;100601.44;5009811;28;20158;-61
2022/09/16 10:31:01;;;;;;;11.98;2.00;;;;;;;21.05;39.28;100597.53;5010225;28;20052;-61
2022/09/16 10:33:26;;;;;;;10.02;1.67;;;;;;;21.12;39.84;100600.31;5011309;28;20402;-60
2022/09/16 10:35:54;;;;;;;11.32;2.00;;;;;;;21.23;39.30;100597.63;5012046;28;20046;-61
2022/09/16 10:38:19;;;;;;;17.98;2.40;;;;;;;21.35;38.47;100588.22;5010322;28;20042;-61
2022/09/16 10:40:44;;;;;;;18.63;2.65;;;;;;;21.07;38.65;100592.44;5011655;28;20394;-61
2022/09/16 10:43:09;;;;;;;13.70;2.88;;;;;;;21.17;37.90;100599.19;5011082;28;20474;-61
2022/09/16 10:45:35;;;;;;;12.07;2.03;;;;;;;21.05;37.68;100590.06;5011360;28;20034;-61
2022/09/16 10:48:00;;;;;;;10.75;1.67;;;;;;;21.05;38.42;100581.03;5009624;28;20041;-62
2022/09/16 10:50:25;;;;;;;10.75;1.77;;;;;;;21.03;38.33;100583.34;5009651;28;20034;-62
2022/09/16 10:52:51;;;;;;;13.13;2.03;;;;;;;21.00;38.79;100587.66;5011664;28;20510;-61
2022/09/16 10:55:16;;;;;;;13.30;1.40;;;;;;;20.93;38.82;100595.88;5011393;28;20546;-61
2022/09/16 10:57:42;;;;;;;13.75;2.65;;;;;;;21.20;39.27;100606.63;5011699;28;20483;-61
2022/09/16 11:00:08;;;;;;;16.77;2.97;;;;;;;21.31;39.45;100598.47;5009433;28;20038;-61
2022/09/16 11:02:33;;;;;;;20.42;3.72;;;;;;;21.36;38.09;100589.81;5011164;28;20051;-61
2022/09/16 11:04:58;;;;;;;19.00;3.63;;;;;;;21.21;37.34;100588.97;5011088;28;20106;-62
2022/09/16 11:07:23;;;;;;;14.90;3.17;;;;;;;20.83;37.75;100591.88;5011311;28;20113;-62
2022/09/16 11:09:49;;;;;;;16.42;2.30;;;;;;;21.06;37.90;100623.88;5010785;28;20040;-61
2022/09/16 11:12:14;;;;;;;10.50;2.33;;;;;;;21.08;38.50;100591.25;5011353;28;20022;-61